sensor_id;sensor_type;location;lat;lon;timestamp;P1;durP1;ratioP1;P2;durP2;ratioP2
20287;SDS011;10303;51.960;8.372;2023-01-19T00:00:18;7.37;;;3.83;;
20287;SDS011;10303;51.960;8.372;2023-01-19T00:02:44;7.20;;;3.53;;
20287;SDS011;10303;51.960;8.372;2023-01-19T00:05:11;6.40;;;3.50;;
20287;SDS011;10303;51.960;8.372;2023-01-19T00:07:38;7.77;;;3.77;;
20287;SDS011;10303;51.960;8.372;2023-01-19T00:10:05;7.10;;;3.80;;
20287;SDS011;10303;51.960;8.372;2023-01-19T00:12:32;5.80;;;3.30;;
20287;SDS011;10303;51.960;8.372;2023-01-19T00:14:58;4.80;;;3.13;;
20287;SDS011;10303;51.960;8.372;2023-01-19T00:17:24;6.67;;;4.20;;
20287;SDS011;10303;51.960;8.372;2023-01-19T00:19:49;8.57;;;4.63;;
20287;SDS011;10303;51.960;8.372;2023-01-19T00:22:15;4.43;;;3.37;;
20287;SDS011;10303;51.960;8.372;2023-01-19T00:24:41;4.80;;;3.90;;
20287;SDS011;10303;51.960;8.372;2023-01-19T00:27:08;6.70;;;4.10;;
20287;SDS011;10303;51.960;8.372;2023-01-19T00:29:34;9.57;;;4.13;;
20287;SDS011;10303;51.960;8.372;2023-01-19T00:32:00;6.83;;;4.07;;
20287;SDS011;10303;51.960;8.372;2023-01-19T00:34:28;6.77;;;3.67;;
20287;SDS011;10303;51.960;8.372;2023-01-19T00:37:10;4.77;;;3.83;;
20287;SDS011;10303;51.960;8.372;2023-01-19T00:39:36;6.23;;;4.17;;
20287;SDS011;10303;51.960;8.372;2023-01-19T00:42:02;6.23;;;4.13;;
20287;SDS011;10303;51.960;8.372;2023-01-19T00:44:47;8.17;;;3.90;;
20287;SDS011;10303;51.960;8.372;2023-01-19T00:47:13;7.33;;;4.47;;
20287;SDS011;10303;51.960;8.372;2023-01-19T00:49:39;7.37;;;4.40;;
20287;SDS011;10303;51.960;8.372;2023-01-19T00:52:04;11.47;;;4.40;;
20287;SDS011;10303;51.960;8.372;2023-01-19T00:54:30;8.03;;;4.47;;
20287;SDS011;10303;51.960;8.372;2023-01-19T00:56:56;5.80;;;4.30;;
20287;SDS011;10303;51.960;8.372;2023-01-19T00:59:22;5.90;;;4.57;;
20287;SDS011;10303;51.960;8.372;2023-01-19T01:01:49;7.23;;;4.07;;
20287;SDS011;10303;51.960;8.372;2023-01-19T01:04:15;6.53;;;4.10;;
20287;SDS011;10303;51.960;8.372;2023-01-19T01:06:41;8.07;;;3.77;;
20287;SDS011;10303;51.960;8.372;2023-01-19T01:09:07;6.83;;;4.07;;
20287;SDS011;10303;51.960;8.372;2023-01-19T01:11:37;7.70;;;4.70;;
20287;SDS011;10303;51.960;8.372;2023-01-19T01:14:07;6.60;;;4.70;;
20287;SDS011;10303;51.960;8.372;2023-01-19T01:16:35;8.73;;;4.43;;
20287;SDS011;10303;51.960;8.372;2023-01-19T01:19:01;7.57;;;4.77;;
20287;SDS011;10303;51.960;8.372;2023-01-19T01:21:27;8.33;;;3.53;;
20287;SDS011;10303;51.960;8.372;2023-01-19T01:23:53;6.67;;;3.60;;
20287;SDS011;10303;51.960;8.372;2023-01-19T01:26:19;5.57;;;4.40;;
20287;SDS011;10303;51.960;8.372;2023-01-19T01:28:45;4.30;;;3.70;;
20287;SDS011;10303;51.960;8.372;2023-01-19T01:31:11;5.00;;;3.90;;
20287;SDS011;10303;51.960;8.372;2023-01-19T01:33:37;8.97;;;4.50;;
20287;SDS011;10303;51.960;8.372;2023-01-19T01:36:03;7.13;;;4.53;;
20287;SDS011;10303;51.960;8.372;2023-01-19T01:38:30;7.13;;;4.63;;
20287;SDS011;10303;51.960;8.372;2023-01-19T01:40:56;7.40;;;3.47;;
20287;SDS011;10303;51.960;8.372;2023-01-19T01:43:22;4.40;;;4.00;;
20287;SDS011;10303;51.960;8.372;2023-01-19T01:45:47;8.10;;;4.40;;
20287;SDS011;10303;51.960;8.372;2023-01-19T01:48:15;6.93;;;4.87;;
20287;SDS011;10303;51.960;8.372;2023-01-19T01:50:52;6.13;;;3.63;;
20287;SDS011;10303;51.960;8.372;2023-01-19T01:53:54;6.57;;;4.30;;
20287;SDS011;10303;51.960;8.372;2023-01-19T01:56:38;6.20;;;4.60;;
20287;SDS011;10303;51.960;8.372;2023-01-19T01:59:10;7.00;;;4.60;;
20287;SDS011;10303;51.960;8.372;2023-01-19T02:01:50;6.70;;;4.80;;
20287;SDS011;10303;51.960;8.372;2023-01-19T02:04:39;4.37;;;3.80;;
20287;SDS011;10303;51.960;8.372;2023-01-19T02:07:16;5.83;;;4.20;;
20287;SDS011;10303;51.960;8.372;2023-01-19T02:10:12;4.90;;;3.33;;
20287;SDS011;10303;51.960;8.372;2023-01-19T02:12:57;6.03;;;4.00;;
20287;SDS011;10303;51.960;8.372;2023-01-19T02:15:42;7.57;;;5.00;;
20287;SDS011;10303;51.960;8.372;2023-01-19T02:18:09;8.83;;;4.90;;
20287;SDS011;10303;51.960;8.372;2023-01-19T02:20:35;8.60;;;4.17;;
20287;SDS011;10303;51.960;8.372;2023-01-19T02:23:06;6.50;;;4.10;;
20287;SDS011;10303;51.960;8.372;2023-01-19T02:25:43;7.47;;;4.87;;
20287;SDS011;10303;51.960;8.372;2023-01-19T02:28:10;6.43;;;4.23;;
20287;SDS011;10303;51.960;8.372;2023-01-19T02:30:37;6.57;;;4.40;;
20287;SDS011;10303;51.960;8.372;2023-01-19T02:33:05;11.00;;;4.70;;
20287;SDS011;10303;51.960;8.372;2023-01-19T02:35:31;6.40;;;4.53;;
20287;SDS011;10303;51.960;8.372;2023-01-19T02:38:02;7.30;;;4.13;;
20287;SDS011;10303;51.960;8.372;2023-01-19T02:40:29;9.53;;;5.20;;
20287;SDS011;10303;51.960;8.372;2023-01-19T02:42:55;7.33;;;4.87;;
20287;SDS011;10303;51.960;8.372;2023-01-19T02:45:24;8.63;;;5.37;;
20287;SDS011;10303;51.960;8.372;2023-01-19T02:47:51;12.90;;;5.27;;
20287;SDS011;10303;51.960;8.372;2023-01-19T02:55:56;6.43;;;4.50;;
20287;SDS011;10303;51.960;8.372;2023-01-19T03:02:14;7.00;;;4.57;;
20287;SDS011;10303;51.960;8.372;2023-01-19T03:08:08;9.50;;;5.00;;
20287;SDS011;10303;51.960;8.372;2023-01-19T03:16:20;6.30;;;4.80;;
20287;SDS011;10303;51.960;8.372;2023-01-19T03:18:54;4.70;;;3.87;;
20287;SDS011;10303;51.960;8.372;2023-01-19T03:21:28;6.50;;;4.20;;
20287;SDS011;10303;51.960;8.372;2023-01-19T03:24:00;5.53;;;3.47;;
20287;SDS011;10303;51.960;8.372;2023-01-19T03:26:31;10.77;;;3.93;;
20287;SDS011;10303;51.960;8.372;2023-01-19T03:29:05;7.67;;;4.57;;
20287;SDS011;10303;51.960;8.372;2023-01-19T03:31:37;6.80;;;3.43;;
20287;SDS011;10303;51.960;8.372;2023-01-19T03:34:08;4.90;;;3.97;;
20287;SDS011;10303;51.960;8.372;2023-01-19T03:36:49;6.40;;;3.67;;
20287;SDS011;10303;51.960;8.372;2023-01-19T03:39:22;8.17;;;4.57;;
20287;SDS011;10303;51.960;8.372;2023-01-19T03:41:53;8.03;;;4.20;;
20287;SDS011;10303;51.960;8.372;2023-01-19T03:44:29;6.77;;;4.80;;
20287;SDS011;10303;51.960;8.372;2023-01-19T03:47:00;4.70;;;4.17;;
20287;SDS011;10303;51.960;8.372;2023-01-19T03:49:30;8.13;;;4.60;;
20287;SDS011;10303;51.960;8.372;2023-01-19T03:51:59;8.90;;;4.87;;
20287;SDS011;10303;51.960;8.372;2023-01-19T03:54:25;6.47;;;4.87;;
20287;SDS011;10303;51.960;8.372;2023-01-19T03:56:51;6.03;;;4.07;;
20287;SDS011;10303;51.960;8.372;2023-01-19T03:59:18;8.80;;;5.03;;
20287;SDS011;10303;51.960;8.372;2023-01-19T04:01:46;5.37;;;4.03;;
20287;SDS011;10303;51.960;8.372;2023-01-19T04:04:14;9.10;;;5.07;;
20287;SDS011;10303;51.960;8.372;2023-01-19T04:06:40;7.97;;;4.20;;
20287;SDS011;10303;51.960;8.372;2023-01-19T04:09:07;6.83;;;4.97;;
20287;SDS011;10303;51.960;8.372;2023-01-19T04:11:33;5.77;;;3.63;;
20287;SDS011;10303;51.960;8.372;2023-01-19T04:13:59;4.97;;;3.87;;
20287;SDS011;10303;51.960;8.372;2023-01-19T04:16:25;9.23;;;4.17;;
20287;SDS011;10303;51.960;8.372;2023-01-19T04:18:51;10.03;;;4.77;;
20287;SDS011;10303;51.960;8.372;2023-01-19T04:21:17;6.87;;;4.43;;
20287;SDS011;10303;51.960;8.372;2023-01-19T04:23:46;6.20;;;4.10;;
20287;SDS011;10303;51.960;8.372;2023-01-19T04:26:14;8.23;;;4.93;;
20287;SDS011;10303;51.960;8.372;2023-01-19T04:28:40;9.03;;;4.90;;
20287;SDS011;10303;51.960;8.372;2023-01-19T04:31:06;5.40;;;3.90;;
20287;SDS011;10303;51.960;8.372;2023-01-19T04:33:33;7.53;;;4.53;;
20287;SDS011;10303;51.960;8.372;2023-01-19T04:35:59;4.17;;;3.77;;
20287;SDS011;10303;51.960;8.372;2023-01-19T04:38:25;9.57;;;4.50;;
20287;SDS011;10303;51.960;8.372;2023-01-19T04:40:51;6.07;;;4.37;;
20287;SDS011;10303;51.960;8.372;2023-01-19T04:43:19;6.50;;;4.13;;
20287;SDS011;10303;51.960;8.372;2023-01-19T04:45:46;10.53;;;4.00;;
20287;SDS011;10303;51.960;8.372;2023-01-19T04:48:13;8.87;;;4.23;;
20287;SDS011;10303;51.960;8.372;2023-01-19T04:50:42;6.90;;;4.13;;
20287;SDS011;10303;51.960;8.372;2023-01-19T04:53:09;3.63;;;3.00;;
20287;SDS011;10303;51.960;8.372;2023-01-19T04:55:37;8.73;;;4.10;;
20287;SDS011;10303;51.960;8.372;2023-01-19T04:58:04;7.03;;;4.47;;
20287;SDS011;10303;51.960;8.372;2023-01-19T05:00:30;10.27;;;4.23;;
20287;SDS011;10303;51.960;8.372;2023-01-19T05:02:56;5.97;;;3.57;;
20287;SDS011;10303;51.960;8.372;2023-01-19T05:05:21;8.03;;;4.13;;
20287;SDS011;10303;51.960;8.372;2023-01-19T05:07:48;5.93;;;4.33;;
20287;SDS011;10303;51.960;8.372;2023-01-19T05:10:13;5.63;;;3.60;;
20287;SDS011;10303;51.960;8.372;2023-01-19T05:12:40;4.53;;;3.73;;
20287;SDS011;10303;51.960;8.372;2023-01-19T05:15:06;6.67;;;3.60;;
20287;SDS011;10303;51.960;8.372;2023-01-19T05:17:34;7.70;;;3.80;;
20287;SDS011;10303;51.960;8.372;2023-01-19T05:20:00;10.43;;;4.07;;
20287;SDS011;10303;51.960;8.372;2023-01-19T05:22:27;5.00;;;3.53;;
20287;SDS011;10303;51.960;8.372;2023-01-19T05:24:54;5.67;;;3.20;;
20287;SDS011;10303;51.960;8.372;2023-01-19T05:27:19;6.97;;;3.73;;
20287;SDS011;10303;51.960;8.372;2023-01-19T05:29:45;9.47;;;3.70;;
20287;SDS011;10303;51.960;8.372;2023-01-19T05:32:11;6.83;;;3.83;;
20287;SDS011;10303;51.960;8.372;2023-01-19T05:34:37;4.20;;;3.30;;
20287;SDS011;10303;51.960;8.372;2023-01-19T05:37:03;6.10;;;4.03;;
20287;SDS011;10303;51.960;8.372;2023-01-19T05:39:29;3.47;;;3.13;;
20287;SDS011;10303;51.960;8.372;2023-01-19T05:41:55;6.37;;;3.37;;
20287;SDS011;10303;51.960;8.372;2023-01-19T05:44:21;6.47;;;3.97;;
20287;SDS011;10303;51.960;8.372;2023-01-19T05:46:47;7.43;;;3.67;;
20287;SDS011;10303;51.960;8.372;2023-01-19T05:49:13;5.50;;;3.57;;
20287;SDS011;10303;51.960;8.372;2023-01-19T05:51:39;5.03;;;2.83;;
20287;SDS011;10303;51.960;8.372;2023-01-19T05:54:10;9.97;;;3.60;;
20287;SDS011;10303;51.960;8.372;2023-01-19T05:56:39;3.93;;;3.23;;
20287;SDS011;10303;51.960;8.372;2023-01-19T05:59:06;3.73;;;3.33;;
20287;SDS011;10303;51.960;8.372;2023-01-19T06:01:32;6.60;;;3.30;;
20287;SDS011;10303;51.960;8.372;2023-01-19T06:04:03;6.23;;;3.10;;
20287;SDS011;10303;51.960;8.372;2023-01-19T06:06:29;8.80;;;3.37;;
20287;SDS011;10303;51.960;8.372;2023-01-19T06:08:55;5.90;;;3.37;;
20287;SDS011;10303;51.960;8.372;2023-01-19T06:11:21;3.37;;;2.80;;
20287;SDS011;10303;51.960;8.372;2023-01-19T06:13:47;4.07;;;2.90;;
20287;SDS011;10303;51.960;8.372;2023-01-19T06:16:13;3.87;;;2.73;;
20287;SDS011;10303;51.960;8.372;2023-01-19T06:18:39;7.10;;;3.80;;
20287;SDS011;10303;51.960;8.372;2023-01-19T06:21:05;5.87;;;3.40;;
20287;SDS011;10303;51.960;8.372;2023-01-19T06:23:33;5.77;;;3.00;;
20287;SDS011;10303;51.960;8.372;2023-01-19T06:26:00;4.03;;;3.10;;
20287;SDS011;10303;51.960;8.372;2023-01-19T06:28:27;6.37;;;3.73;;
20287;SDS011;10303;51.960;8.372;2023-01-19T06:30:53;4.13;;;3.67;;
20287;SDS011;10303;51.960;8.372;2023-01-19T06:33:21;3.50;;;3.07;;
20287;SDS011;10303;51.960;8.372;2023-01-19T06:35:48;5.13;;;2.83;;
20287;SDS011;10303;51.960;8.372;2023-01-19T06:38:15;3.27;;;2.77;;
20287;SDS011;10303;51.960;8.372;2023-01-19T06:40:43;3.90;;;2.90;;
20287;SDS011;10303;51.960;8.372;2023-01-19T06:43:15;3.70;;;2.80;;
20287;SDS011;10303;51.960;8.372;2023-01-19T06:45:41;3.73;;;2.40;;
20287;SDS011;10303;51.960;8.372;2023-01-19T06:48:07;4.73;;;3.07;;
20287;SDS011;10303;51.960;8.372;2023-01-19T06:50:33;2.67;;;2.43;;
20287;SDS011;10303;51.960;8.372;2023-01-19T06:52:59;3.13;;;2.37;;
20287;SDS011;10303;51.960;8.372;2023-01-19T06:55:25;4.07;;;1.70;;
20287;SDS011;10303;51.960;8.372;2023-01-19T06:57:55;2.30;;;1.93;;
20287;SDS011;10303;51.960;8.372;2023-01-19T07:00:22;2.60;;;1.80;;
20287;SDS011;10303;51.960;8.372;2023-01-19T07:02:49;2.37;;;2.17;;
20287;SDS011;10303;51.960;8.372;2023-01-19T07:05:15;3.43;;;2.53;;
20287;SDS011;10303;51.960;8.372;2023-01-19T07:07:41;2.20;;;2.00;;
20287;SDS011;10303;51.960;8.372;2023-01-19T07:10:09;2.50;;;2.30;;
20287;SDS011;10303;51.960;8.372;2023-01-19T07:12:37;2.97;;;2.67;;
20287;SDS011;10303;51.960;8.372;2023-01-19T07:15:04;2.93;;;2.60;;
20287;SDS011;10303;51.960;8.372;2023-01-19T07:17:31;3.43;;;2.90;;
20287;SDS011;10303;51.960;8.372;2023-01-19T07:19:57;2.30;;;2.10;;
20287;SDS011;10303;51.960;8.372;2023-01-19T07:22:23;4.33;;;3.07;;
20287;SDS011;10303;51.960;8.372;2023-01-19T07:24:49;3.63;;;2.73;;
20287;SDS011;10303;51.960;8.372;2023-01-19T07:27:15;3.10;;;2.80;;
20287;SDS011;10303;51.960;8.372;2023-01-19T07:29:41;2.93;;;2.73;;
20287;SDS011;10303;51.960;8.372;2023-01-19T07:32:07;3.20;;;2.53;;
20287;SDS011;10303;51.960;8.372;2023-01-19T07:34:33;3.13;;;2.57;;
20287;SDS011;10303;51.960;8.372;2023-01-19T07:36:59;3.23;;;2.53;;
20287;SDS011;10303;51.960;8.372;2023-01-19T07:39:26;2.17;;;1.97;;
20287;SDS011;10303;51.960;8.372;2023-01-19T07:41:51;4.10;;;3.13;;
20287;SDS011;10303;51.960;8.372;2023-01-19T07:44:18;2.50;;;2.27;;
20287;SDS011;10303;51.960;8.372;2023-01-19T07:46:43;3.60;;;2.87;;
20287;SDS011;10303;51.960;8.372;2023-01-19T07:49:09;2.63;;;2.43;;
20287;SDS011;10303;51.960;8.372;2023-01-19T07:51:36;2.93;;;2.27;;
20287;SDS011;10303;51.960;8.372;2023-01-19T07:54:02;2.70;;;2.50;;
20287;SDS011;10303;51.960;8.372;2023-01-19T07:56:28;4.03;;;3.63;;
20287;SDS011;10303;51.960;8.372;2023-01-19T07:58:55;5.70;;;3.60;;
20287;SDS011;10303;51.960;8.372;2023-01-19T08:01:21;2.40;;;2.20;;
20287;SDS011;10303;51.960;8.372;2023-01-19T08:03:47;3.03;;;2.47;;
20287;SDS011;10303;51.960;8.372;2023-01-19T08:06:18;2.73;;;2.47;;
20287;SDS011;10303;51.960;8.372;2023-01-19T08:08:47;3.50;;;2.67;;
20287;SDS011;10303;51.960;8.372;2023-01-19T08:11:13;2.13;;;1.97;;
20287;SDS011;10303;51.960;8.372;2023-01-19T08:13:40;2.30;;;2.10;;
20287;SDS011;10303;51.960;8.372;2023-01-19T08:16:07;3.17;;;2.50;;
20287;SDS011;10303;51.960;8.372;2023-01-19T08:18:33;2.30;;;1.93;;
20287;SDS011;10303;51.960;8.372;2023-01-19T08:20:59;3.07;;;2.73;;
20287;SDS011;10303;51.960;8.372;2023-01-19T08:23:25;3.10;;;2.53;;
20287;SDS011;10303;51.960;8.372;2023-01-19T08:25:54;2.83;;;2.47;;
20287;SDS011;10303;51.960;8.372;2023-01-19T08:28:20;7.87;;;3.03;;
20287;SDS011;10303;51.960;8.372;2023-01-19T08:30:47;3.23;;;2.87;;
20287;SDS011;10303;51.960;8.372;2023-01-19T08:33:22;2.00;;;1.83;;
20287;SDS011;10303;51.960;8.372;2023-01-19T08:35:50;3.07;;;2.77;;
20287;SDS011;10303;51.960;8.372;2023-01-19T08:38:17;3.87;;;3.30;;
20287;SDS011;10303;51.960;8.372;2023-01-19T08:40:43;4.20;;;3.23;;
20287;SDS011;10303;51.960;8.372;2023-01-19T08:43:11;3.37;;;2.97;;
20287;SDS011;10303;51.960;8.372;2023-01-19T08:45:42;3.50;;;2.63;;
20287;SDS011;10303;51.960;8.372;2023-01-19T08:48:15;2.83;;;2.47;;
20287;SDS011;10303;51.960;8.372;2023-01-19T08:50:44;2.90;;;2.50;;
20287;SDS011;10303;51.960;8.372;2023-01-19T08:53:11;3.87;;;2.90;;
20287;SDS011;10303;51.960;8.372;2023-01-19T08:55:38;2.33;;;2.13;;
20287;SDS011;10303;51.960;8.372;2023-01-19T08:58:04;3.57;;;2.03;;
20287;SDS011;10303;51.960;8.372;2023-01-19T09:00:33;5.53;;;3.13;;
20287;SDS011;10303;51.960;8.372;2023-01-19T09:03:02;4.50;;;3.57;;
20287;SDS011;10303;51.960;8.372;2023-01-19T09:05:31;4.67;;;3.80;;
20287;SDS011;10303;51.960;8.372;2023-01-19T09:08:05;2.47;;;2.27;;
20287;SDS011;10303;51.960;8.372;2023-01-19T09:10:38;7.03;;;3.00;;
20287;SDS011;10303;51.960;8.372;2023-01-19T09:13:10;4.50;;;3.23;;
20287;SDS011;10303;51.960;8.372;2023-01-19T09:15:37;3.10;;;2.80;;
20287;SDS011;10303;51.960;8.372;2023-01-19T09:18:05;2.50;;;2.30;;
20287;SDS011;10303;51.960;8.372;2023-01-19T09:20:36;3.13;;;2.37;;
20287;SDS011;10303;51.960;8.372;2023-01-19T09:23:03;3.17;;;2.40;;
20287;SDS011;10303;51.960;8.372;2023-01-19T09:25:30;4.20;;;2.40;;
20287;SDS011;10303;51.960;8.372;2023-01-19T09:27:59;3.03;;;2.77;;
20287;SDS011;10303;51.960;8.372;2023-01-19T09:30:26;3.20;;;2.90;;
20287;SDS011;10303;51.960;8.372;2023-01-19T09:32:52;5.43;;;3.40;;
20287;SDS011;10303;51.960;8.372;2023-01-19T09:35:18;5.67;;;4.07;;
20287;SDS011;10303;51.960;8.372;2023-01-19T09:37:46;3.67;;;3.27;;
20287;SDS011;10303;51.960;8.372;2023-01-19T09:40:12;3.80;;;3.33;;
20287;SDS011;10303;51.960;8.372;2023-01-19T09:42:43;5.43;;;3.73;;
20287;SDS011;10303;51.960;8.372;2023-01-19T09:45:18;7.40;;;3.97;;
20287;SDS011;10303;51.960;8.372;2023-01-19T09:48:04;4.40;;;4.00;;
20287;SDS011;10303;51.960;8.372;2023-01-19T09:50:59;5.53;;;4.47;;
20287;SDS011;10303;51.960;8.372;2023-01-19T09:53:38;5.57;;;3.83;;
20287;SDS011;10303;51.960;8.372;2023-01-19T09:56:34;6.33;;;3.97;;
20287;SDS011;10303;51.960;8.372;2023-01-19T09:59:00;7.67;;;4.27;;
20287;SDS011;10303;51.960;8.372;2023-01-19T10:01:52;3.70;;;3.23;;
20287;SDS011;10303;51.960;8.372;2023-01-19T10:04:36;3.80;;;3.43;;
20287;SDS011;10303;51.960;8.372;2023-01-19T10:07:08;3.73;;;3.37;;
20287;SDS011;10303;51.960;8.372;2023-01-19T10:19:29;6.60;;;4.57;;
20287;SDS011;10303;51.960;8.372;2023-01-19T10:22:16;7.37;;;4.60;;
20287;SDS011;10303;51.960;8.372;2023-01-19T10:24:47;5.00;;;4.50;;
20287;SDS011;10303;51.960;8.372;2023-01-19T10:27:30;5.60;;;3.93;;
20287;SDS011;10303;51.960;8.372;2023-01-19T10:29:59;9.53;;;3.50;;
20287;SDS011;10303;51.960;8.372;2023-01-19T10:32:28;5.63;;;3.70;;
20287;SDS011;10303;51.960;8.372;2023-01-19T10:34:59;4.17;;;3.40;;
20287;SDS011;10303;51.960;8.372;2023-01-19T10:37:36;4.50;;;3.27;;
20287;SDS011;10303;51.960;8.372;2023-01-19T10:42:33;4.60;;;3.07;;
20287;SDS011;10303;51.960;8.372;2023-01-19T10:45:00;3.93;;;3.37;;
20287;SDS011;10303;51.960;8.372;2023-01-19T10:47:33;6.10;;;3.37;;
20287;SDS011;10303;51.960;8.372;2023-01-19T10:50:23;4.83;;;3.87;;
20287;SDS011;10303;51.960;8.372;2023-01-19T10:52:50;6.73;;;4.40;;
20287;SDS011;10303;51.960;8.372;2023-01-19T10:55:36;6.03;;;3.27;;
20287;SDS011;10303;51.960;8.372;2023-01-19T10:58:05;5.23;;;4.10;;
20287;SDS011;10303;51.960;8.372;2023-01-19T11:00:53;5.67;;;4.23;;
20287;SDS011;10303;51.960;8.372;2023-01-19T11:03:21;7.70;;;4.40;;
20287;SDS011;10303;51.960;8.372;2023-01-19T11:08:38;9.10;;;4.20;;
20287;SDS011;10303;51.960;8.372;2023-01-19T11:11:04;4.67;;;3.63;;
20287;SDS011;10303;51.960;8.372;2023-01-19T11:13:33;10.60;;;3.87;;
20287;SDS011;10303;51.960;8.372;2023-01-19T11:16:11;5.67;;;4.00;;
20287;SDS011;10303;51.960;8.372;2023-01-19T11:18:56;7.53;;;3.90;;
20287;SDS011;10303;51.960;8.372;2023-01-19T11:21:26;6.57;;;4.30;;
20287;SDS011;10303;51.960;8.372;2023-01-19T11:23:56;8.07;;;4.10;;
20287;SDS011;10303;51.960;8.372;2023-01-19T11:26:33;10.47;;;4.70;;
20287;SDS011;10303;51.960;8.372;2023-01-19T11:31:50;7.83;;;4.27;;
20287;SDS011;10303;51.960;8.372;2023-01-19T11:34:31;9.13;;;4.70;;
20287;SDS011;10303;51.960;8.372;2023-01-19T11:37:04;7.77;;;4.33;;
20287;SDS011;10303;51.960;8.372;2023-01-19T11:39:56;22.63;;;5.17;;
20287;SDS011;10303;51.960;8.372;2023-01-19T11:42:27;10.33;;;4.97;;
20287;SDS011;10303;51.960;8.372;2023-01-19T11:47:41;13.30;;;4.53;;
20287;SDS011;10303;51.960;8.372;2023-01-19T11:52:56;13.93;;;4.60;;
20287;SDS011;10303;51.960;8.372;2023-01-19T11:58:12;10.17;;;4.77;;
20287;SDS011;10303;51.960;8.372;2023-01-19T12:00:43;8.60;;;4.07;;
20287;SDS011;10303;51.960;8.372;2023-01-19T12:03:26;7.07;;;4.83;;
20287;SDS011;10303;51.960;8.372;2023-01-19T12:06:32;7.77;;;4.67;;
20287;SDS011;10303;51.960;8.372;2023-01-19T12:08:58;8.63;;;5.40;;
20287;SDS011;10303;51.960;8.372;2023-01-19T12:11:45;13.77;;;5.10;;
20287;SDS011;10303;51.960;8.372;2023-01-19T12:14:39;16.83;;;5.63;;
20287;SDS011;10303;51.960;8.372;2023-01-19T12:17:29;8.87;;;3.37;;
20287;SDS011;10303;51.960;8.372;2023-01-19T12:22:49;9.67;;;5.87;;
20287;SDS011;10303;51.960;8.372;2023-01-19T12:25:44;14.47;;;6.07;;
20287;SDS011;10303;51.960;8.372;2023-01-19T12:28:46;22.03;;;6.03;;
20287;SDS011;10303;51.960;8.372;2023-01-19T12:31:16;7.63;;;5.03;;
20287;SDS011;10303;51.960;8.372;2023-01-19T12:33:45;9.00;;;5.30;;
20287;SDS011;10303;51.960;8.372;2023-01-19T12:38:45;15.77;;;5.80;;
20287;SDS011;10303;51.960;8.372;2023-01-19T12:41:37;11.37;;;6.67;;
20287;SDS011;10303;51.960;8.372;2023-01-19T12:47:17;9.50;;;5.43;;
20287;SDS011;10303;51.960;8.372;2023-01-19T12:52:10;9.17;;;4.93;;
20287;SDS011;10303;51.960;8.372;2023-01-19T12:54:53;8.10;;;5.50;;
20287;SDS011;10303;51.960;8.372;2023-01-19T13:02:47;15.90;;;5.93;;
20287;SDS011;10303;51.960;8.372;2023-01-19T13:18:53;9.40;;;6.40;;
20287;SDS011;10303;51.960;8.372;2023-01-19T13:21:37;12.40;;;5.40;;
20287;SDS011;10303;51.960;8.372;2023-01-19T13:24:20;16.93;;;6.37;;
20287;SDS011;10303;51.960;8.372;2023-01-19T13:32:14;14.67;;;6.27;;
20287;SDS011;10303;51.960;8.372;2023-01-19T13:34:48;9.83;;;6.70;;
20287;SDS011;10303;51.960;8.372;2023-01-19T13:37:24;14.83;;;6.23;;
20287;SDS011;10303;51.960;8.372;2023-01-19T13:40:05;9.07;;;5.73;;
20287;SDS011;10303;51.960;8.372;2023-01-19T13:42:40;12.73;;;6.23;;
20287;SDS011;10303;51.960;8.372;2023-01-19T13:45:15;14.60;;;6.67;;
20287;SDS011;10303;51.960;8.372;2023-01-19T13:47:58;13.43;;;5.70;;
20287;SDS011;10303;51.960;8.372;2023-01-19T13:50:30;12.03;;;5.83;;
20287;SDS011;10303;51.960;8.372;2023-01-19T13:52:58;8.87;;;5.27;;
20287;SDS011;10303;51.960;8.372;2023-01-19T13:55:26;16.03;;;6.20;;
20287;SDS011;10303;51.960;8.372;2023-01-19T13:57:55;13.30;;;5.03;;
20287;SDS011;10303;51.960;8.372;2023-01-19T14:00:25;7.00;;;5.17;;
20287;SDS011;10303;51.960;8.372;2023-01-19T14:03:00;13.40;;;5.90;;
20287;SDS011;10303;51.960;8.372;2023-01-19T14:05:43;8.47;;;4.60;;
20287;SDS011;10303;51.960;8.372;2023-01-19T14:10:40;8.20;;;4.77;;
20287;SDS011;10303;51.960;8.372;2023-01-19T14:13:26;14.27;;;5.37;;
20287;SDS011;10303;51.960;8.372;2023-01-19T14:15:56;8.00;;;4.67;;
20287;SDS011;10303;51.960;8.372;2023-01-19T14:18:26;11.50;;;5.67;;
20287;SDS011;10303;51.960;8.372;2023-01-19T14:21:08;15.90;;;6.23;;
20287;SDS011;10303;51.960;8.372;2023-01-19T14:23:42;10.53;;;5.83;;
20287;SDS011;10303;51.960;8.372;2023-01-19T14:29:35;17.07;;;5.97;;
20287;SDS011;10303;51.960;8.372;2023-01-19T14:37:30;8.90;;;5.63;;
20287;SDS011;10303;51.960;8.372;2023-01-19T14:40:01;10.40;;;5.53;;
20287;SDS011;10303;51.960;8.372;2023-01-19T14:45:07;11.70;;;5.50;;
20287;SDS011;10303;51.960;8.372;2023-01-19T14:48:01;8.10;;;4.37;;
20287;SDS011;10303;51.960;8.372;2023-01-19T14:50:39;8.33;;;5.30;;
20287;SDS011;10303;51.960;8.372;2023-01-19T14:53:11;12.73;;;4.97;;
20287;SDS011;10303;51.960;8.372;2023-01-19T14:55:44;8.77;;;4.67;;
20287;SDS011;10303;51.960;8.372;2023-01-19T14:58:20;11.87;;;5.07;;
20287;SDS011;10303;51.960;8.372;2023-01-19T15:00:50;5.53;;;4.37;;
20287;SDS011;10303;51.960;8.372;2023-01-19T15:03:20;5.83;;;4.70;;
20287;SDS011;10303;51.960;8.372;2023-01-19T15:05:51;10.60;;;4.77;;
20287;SDS011;10303;51.960;8.372;2023-01-19T15:08:24;10.97;;;4.73;;
20287;SDS011;10303;51.960;8.372;2023-01-19T15:10:55;10.77;;;3.83;;
20287;SDS011;10303;51.960;8.372;2023-01-19T15:13:24;14.43;;;6.87;;
20287;SDS011;10303;51.960;8.372;2023-01-19T15:15:51;11.17;;;5.73;;
20287;SDS011;10303;51.960;8.372;2023-01-19T15:18:21;8.07;;;5.73;;
20287;SDS011;10303;51.960;8.372;2023-01-19T15:20:53;10.30;;;5.07;;
20287;SDS011;10303;51.960;8.372;2023-01-19T15:23:19;7.13;;;4.67;;
20287;SDS011;10303;51.960;8.372;2023-01-19T15:25:45;11.17;;;5.27;;
20287;SDS011;10303;51.960;8.372;2023-01-19T15:28:12;11.67;;;6.53;;
20287;SDS011;10303;51.960;8.372;2023-01-19T15:30:42;7.40;;;4.43;;
20287;SDS011;10303;51.960;8.372;2023-01-19T15:33:20;10.03;;;4.87;;
20287;SDS011;10303;51.960;8.372;2023-01-19T15:35:49;11.17;;;5.40;;
20287;SDS011;10303;51.960;8.372;2023-01-19T15:38:16;8.90;;;4.43;;
20287;SDS011;10303;51.960;8.372;2023-01-19T15:40:42;6.97;;;5.03;;
20287;SDS011;10303;51.960;8.372;2023-01-19T15:43:09;10.13;;;5.17;;
20287;SDS011;10303;51.960;8.372;2023-01-19T15:45:36;6.77;;;5.03;;
20287;SDS011;10303;51.960;8.372;2023-01-19T15:48:14;11.83;;;5.63;;
20287;SDS011;10303;51.960;8.372;2023-01-19T15:50:41;8.97;;;5.50;;
20287;SDS011;10303;51.960;8.372;2023-01-19T15:53:18;11.53;;;7.03;;
20287;SDS011;10303;51.960;8.372;2023-01-19T15:55:48;12.57;;;6.93;;
20287;SDS011;10303;51.960;8.372;2023-01-19T15:58:17;18.77;;;8.37;;
20287;SDS011;10303;51.960;8.372;2023-01-19T16:00:44;10.27;;;7.17;;
20287;SDS011;10303;51.960;8.372;2023-01-19T16:03:18;18.70;;;9.00;;
20287;SDS011;10303;51.960;8.372;2023-01-19T16:05:43;15.13;;;8.20;;
20287;SDS011;10303;51.960;8.372;2023-01-19T16:08:11;15.03;;;8.63;;
20287;SDS011;10303;51.960;8.372;2023-01-19T16:10:39;18.40;;;8.83;;
20287;SDS011;10303;51.960;8.372;2023-01-19T16:13:06;21.77;;;9.73;;
20287;SDS011;10303;51.960;8.372;2023-01-19T16:15:34;14.97;;;6.73;;
20287;SDS011;10303;51.960;8.372;2023-01-19T16:18:02;13.43;;;7.23;;
20287;SDS011;10303;51.960;8.372;2023-01-19T16:20:30;16.77;;;7.87;;
20287;SDS011;10303;51.960;8.372;2023-01-19T16:22:56;14.73;;;8.07;;
20287;SDS011;10303;51.960;8.372;2023-01-19T16:25:22;15.97;;;8.30;;
20287;SDS011;10303;51.960;8.372;2023-01-19T16:27:49;12.10;;;7.70;;
20287;SDS011;10303;51.960;8.372;2023-01-19T16:30:15;13.30;;;7.20;;
20287;SDS011;10303;51.960;8.372;2023-01-19T16:32:43;12.27;;;6.67;;
20287;SDS011;10303;51.960;8.372;2023-01-19T16:35:11;12.13;;;6.63;;
20287;SDS011;10303;51.960;8.372;2023-01-19T16:37:39;9.13;;;5.97;;